Time;durP1;ratioP1;P1;durP2;ratioP2;P2;SDS_P1;SDS_P2;PMS_P1;PMS_P2;Temp;Humidity;BMP_temperature;BMP_pressure;BME280_temperature;BME280_humidity;BME280_pressure;Samples;Min_cycle;Max_cycle;Signal;HPM_P1;HPM_P2
2023/10/15 00:00:37;;;;;;;6.43;1.38;;;8.40;87.30;;;;;;5054693;28;20057;-35
2023/10/15 00:03:04;;;;;;;5.22;1.10;;;8.40;87.40;;;;;;5054814;28;20381;-35
2023/10/15 00:05:30;;;;;;;2.22;0.98;;;8.50;87.50;;;;;;5054496;28;20013;-34
2023/10/15 00:07:57;;;;;;;1.67;0.80;;;8.50;87.50;;;;;;5054749;28;20104;-34
2023/10/15 00:10:26;;;;;;;2.88;0.95;;;8.50;87.60;;;;;;5054414;28;20017;-35
2023/10/15 00:12:53;;;;;;;1.60;0.77;;;8.50;87.60;;;;;;5054560;28;20484;-35
2023/10/15 00:15:20;;;;;;;1.58;0.73;;;8.50;87.70;;;;;;5054151;28;20075;-35
2023/10/15 00:17:46;;;;;;;2.53;0.80;;;8.50;87.70;;;;;;5054205;28;20017;-35
2023/10/15 00:20:16;;;;;;;2.20;0.73;;;8.50;87.70;;;;;;5054238;28;20049;-36
2023/10/15 00:22:43;;;;;;;2.38;0.80;;;8.60;87.80;;;;;;5054477;28;20385;-35
2023/10/15 00:25:12;;;;;;;1.95;0.65;;;8.50;87.70;;;;;;5054005;28;20298;-35
2023/10/15 00:27:38;;;;;;;2.45;0.77;;;8.50;87.70;;;;;;5054282;28;20430;-34
2023/10/15 00:30:12;;;;;;;1.38;0.50;;;8.60;87.90;;;;;;5053836;28;20397;-33
2023/10/15 00:32:44;;;;;;;2.10;0.60;;;8.60;88.00;;;;;;5054027;28;20032;-33
2023/10/15 00:35:11;;;;;;;3.05;0.75;;;8.60;87.90;;;;;;5053884;28;20063;-34
2023/10/15 00:40:29;;;;;;;3.47;1.08;;;8.60;88.00;;;;;;5052800;28;20062;-33
2023/10/15 00:42:57;;;;;;;0.93;0.57;;;8.60;88.10;;;;;;5053666;28;20028;-34
2023/10/15 00:45:23;;;;;;;2.67;0.70;;;8.60;88.30;;;;;;5053855;28;20453;-34
2023/10/15 00:50:40;;;;;;;3.00;0.60;;;8.50;88.40;;;;;;5053832;28;20365;-33
2023/10/15 00:53:21;;;;;;;2.10;0.50;;;8.40;88.50;;;;;;5053694;28;20098;-35
2023/10/15 00:56:04;;;;;;;2.17;0.60;;;8.40;88.80;;;;;;5053060;28;20060;-35
2023/10/15 01:04:11;;;;;;;1.70;0.60;;;8.30;89.20;;;;;;5052712;28;20040;-35
2023/10/15 01:09:09;;;;;;;3.08;0.98;;;8.40;89.40;;;;;;5053240;28;20056;-36
2023/10/15 01:11:50;;;;;;;2.67;1.10;;;8.40;89.50;;;;;;5052437;28;20036;-34
2023/10/15 01:14:25;;;;;;;3.72;1.00;;;8.40;89.60;;;;;;5053231;28;20050;-34
2023/10/15 01:16:51;;;;;;;2.42;1.00;;;8.40;89.70;;;;;;5053271;28;20021;-35
2023/10/15 01:19:19;;;;;;;2.75;1.10;;;8.40;89.80;;;;;;5053031;28;20351;-34
2023/10/15 01:21:57;;;;;;;1.42;0.50;;;8.50;90.00;;;;;;5051596;28;20028;-34
2023/10/15 01:24:25;;;;;;;2.75;0.70;;;8.40;89.90;;;;;;5053043;28;20457;-35
2023/10/15 01:26:59;;;;;;;2.42;0.60;;;8.50;90.00;;;;;;5052806;28;20036;-35
2023/10/15 01:29:27;;;;;;;4.63;0.60;;;8.40;90.00;;;;;;5052807;28;20420;-34
2023/10/15 01:31:58;;;;;;;1.35;0.60;;;8.40;90.00;;;;;;5052655;28;20031;-37
2023/10/15 01:34:27;;;;;;;1.58;0.47;;;8.40;90.00;;;;;;5035698;28;20025;-35
2023/10/15 01:36:56;;;;;;;1.80;0.50;;;8.40;90.00;;;;;;5052557;28;20044;-35
2023/10/15 01:39:30;;;;;;;1.42;0.40;;;8.40;90.10;;;;;;5052999;28;20032;-34
2023/10/15 01:42:03;;;;;;;0.95;0.55;;;8.50;90.10;;;;;;5052614;28;20025;-34
2023/10/15 01:44:30;;;;;;;0.98;0.60;;;8.40;90.00;;;;;;5051247;28;20529;-34
2023/10/15 01:49:31;;;;;;;2.72;0.70;;;8.40;90.00;;;;;;5052722;28;20029;-35
2023/10/15 01:52:09;;;;;;;2.28;0.55;;;8.40;90.00;;;;;;5052501;28;20052;-33
2023/10/15 01:54:41;;;;;;;1.98;0.52;;;8.40;90.00;;;;;;5052302;28;20036;-33
2023/10/15 01:57:06;;;;;;;2.85;0.55;;;8.40;90.00;;;;;;5052460;28;20033;-34
2023/10/15 01:59:47;;;;;;;3.60;0.47;;;8.40;90.00;;;;;;5052441;28;20025;-35
2023/10/15 02:02:24;;;;;;;1.98;0.50;;;8.40;90.00;;;;;;5052714;28;20338;-35
2023/10/15 02:04:50;;;;;;;1.35;0.60;;;8.40;90.00;;;;;;5052471;28;20065;-35
2023/10/15 02:07:20;;;;;;;2.05;0.95;;;8.40;90.10;;;;;;5051217;28;20021;-35
2023/10/15 02:09:48;;;;;;;1.98;0.70;;;8.40;90.10;;;;;;5052055;28;20013;-35
2023/10/15 02:12:20;;;;;;;2.60;0.60;;;8.40;90.10;;;;;;5052189;28;20033;-35
2023/10/15 02:14:51;;;;;;;3.40;0.77;;;8.40;90.10;;;;;;5052436;28;20082;-35
2023/10/15 02:17:24;;;;;;;1.45;0.60;;;8.40;90.20;;;;;;5052369;28;20025;-35
2023/10/15 02:19:51;;;;;;;2.13;0.60;;;8.40;90.20;;;;;;5052383;28;20025;-35
2023/10/15 02:22:17;;;;;;;2.22;0.80;;;8.40;90.20;;;;;;5052320;28;20029;-34
2023/10/15 02:24:48;;;;;;;1.90;0.80;;;8.40;90.20;;;;;;5051921;28;20033;-35
2023/10/15 02:27:17;;;;;;;1.05;0.73;;;8.40;90.20;;;;;;5052254;28;20032;-36
2023/10/15 02:29:49;;;;;;;1.05;0.68;;;8.40;90.50;;;;;;5051982;28;20033;-36
2023/10/15 02:32:27;;;;;;;2.25;0.55;;;8.40;90.30;;;;;;5052405;28;20021;-35
2023/10/15 02:34:57;;;;;;;2.17;0.63;;;8.50;90.30;;;;;;5052256;28;20480;-35
2023/10/15 02:37:26;;;;;;;3.17;0.88;;;8.50;90.30;;;;;;5050758;28;20025;-35
2023/10/15 02:39:52;;;;;;;3.35;0.60;;;8.50;90.30;;;;;;5052072;28;20049;-34
2023/10/15 02:42:30;;;;;;;1.63;0.70;;;8.50;90.30;;;;;;5051990;28;20029;-35
2023/10/15 02:44:58;;;;;;;1.90;0.90;;;8.60;90.30;;;;;;5051907;28;20028;-32
2023/10/15 02:47:48;;;;;;;1.80;0.52;;;8.60;90.30;;;;;;5052265;28;20029;-35
2023/10/15 02:50:18;;;;;;;2.40;0.70;;;8.60;90.30;;;;;;5052121;28;20021;-34
2023/10/15 02:52:45;;;;;;;1.45;0.52;;;8.60;90.30;;;;;;5052069;28;20095;-35
2023/10/15 02:55:11;;;;;;;1.38;0.73;;;8.60;90.20;;;;;;5051570;28;20036;-34
2023/10/15 02:57:38;;;;;;;2.42;0.52;;;8.60;90.20;;;;;;5051971;28;20053;-33
2023/10/15 03:00:28;;;;;;;2.40;0.60;;;8.60;90.20;;;;;;5050763;28;20029;-35
2023/10/15 03:02:57;;;;;;;0.85;0.50;;;8.60;90.30;;;;;;5052073;28;20033;-35
2023/10/15 03:05:30;;;;;;;0.50;0.30;;;8.50;90.20;;;;;;5052077;28;20025;-36
2023/10/15 03:07:59;;;;;;;1.33;0.60;;;8.50;90.30;;;;;;5052000;28;20031;-34
2023/10/15 03:13:32;;;;;;;3.10;0.60;;;8.50;90.30;;;;;;5049262;28;20032;-35
2023/10/15 03:16:07;;;;;;;1.48;0.60;;;8.50;90.30;;;;;;5049195;28;20416;-34
2023/10/15 03:18:34;;;;;;;1.38;0.40;;;8.50;90.30;;;;;;5050451;28;20162;-35
2023/10/15 03:21:09;;;;;;;1.75;0.40;;;8.40;90.30;;;;;;5051971;28;20086;-33
2023/10/15 03:23:35;;;;;;;2.55;0.50;;;8.40;90.30;;;;;;5051989;28;20025;-35
2023/10/15 03:26:02;;;;;;;1.13;0.43;;;8.40;90.30;;;;;;5051290;28;20067;-34
2023/10/15 03:28:28;;;;;;;0.90;0.50;;;8.40;90.30;;;;;;5051550;28;20036;-32
2023/10/15 03:30:55;;;;;;;1.02;0.22;;;8.40;90.20;;;;;;5051656;28;20025;-35
2023/10/15 03:33:29;;;;;;;1.85;0.50;;;8.40;90.30;;;;;;5051766;28;20392;-34
2023/10/15 03:35:55;;;;;;;3.05;0.52;;;8.40;90.30;;;;;;5055063;28;20078;-35
2023/10/15 03:38:32;;;;;;;1.13;0.57;;;8.30;90.20;;;;;;5055015;28;20104;-33
2023/10/15 03:41:21;;;;;;;1.77;0.55;;;8.40;90.20;;;;;;5055362;28;20032;-34
2023/10/15 03:43:47;;;;;;;0.68;0.30;;;8.30;90.20;;;;;;5054967;28;20065;-34
2023/10/15 03:46:19;;;;;;;1.75;0.40;;;8.30;90.20;;;;;;5054921;28;20036;-35
2023/10/15 03:48:48;;;;;;;1.33;0.60;;;8.40;90.30;;;;;;5054992;28;20025;-35
2023/10/15 03:51:20;;;;;;;1.02;0.60;;;8.30;90.30;;;;;;5055094;28;20120;-34
2023/10/15 03:53:49;;;;;;;1.30;0.40;;;8.30;90.30;;;;;;5054991;28;20017;-34
2023/10/15 03:56:17;;;;;;;0.88;0.68;;;8.30;90.30;;;;;;5054870;28;20036;-36
2023/10/15 03:58:43;;;;;;;0.40;0.30;;;8.30;90.30;;;;;;5055057;28;20076;-34
2023/10/15 04:03:35;;;;;;;1.65;0.50;;;8.30;90.30;;;;;;5054867;28;20029;-35
2023/10/15 04:06:05;;;;;;;1.77;0.63;;;8.40;90.30;;;;;;5054570;28;20029;-33
2023/10/15 04:08:31;;;;;;;2.42;0.70;;;8.40;90.30;;;;;;5054837;28;20339;-35
2023/10/15 04:11:00;;;;;;;2.10;0.80;;;8.30;90.20;;;;;;5054473;28;20036;-36
2023/10/15 04:13:27;;;;;;;1.27;0.68;;;8.30;90.20;;;;;;5054589;28;20036;-35
2023/10/15 04:15:54;;;;;;;0.80;0.70;;;8.20;90.10;;;;;;5054511;28;20025;-35
2023/10/15 04:18:23;;;;;;;1.17;0.50;;;8.10;90.10;;;;;;5054435;28;20403;-33
2023/10/15 04:20:50;;;;;;;0.93;0.47;;;8.00;90.20;;;;;;5054469;28;20038;-35
2023/10/15 04:23:31;;;;;;;1.73;0.40;;;8.00;90.40;;;;;;5054236;28;20032;-34
2023/10/15 04:26:00;;;;;;;1.05;0.50;;;8.00;90.50;;;;;;5054171;28;20353;-34
2023/10/15 04:28:27;;;;;;;0.43;0.20;;;7.90;90.50;;;;;;5054201;28;20045;-34
2023/10/15 04:30:53;;;;;;;0.20;0.20;;;7.90;90.50;;;;;;5054396;28;20465;-34
2023/10/15 04:33:20;;;;;;;3.42;0.50;;;7.90;90.50;;;;;;5054194;28;20033;-34
2023/10/15 04:35:49;;;;;;;0.80;0.30;;;7.80;90.50;;;;;;5054272;28;20060;-34
2023/10/15 04:38:21;;;;;;;0.60;0.20;;;7.80;90.50;;;;;;5053966;28;20024;-35
2023/10/15 04:43:24;;;;;;;2.40;0.50;;;7.80;90.50;;;;;;5054208;28;20087;-32
2023/10/15 04:45:50;;;;;;;1.40;0.40;;;7.80;90.50;;;;;;5051757;28;20408;-33
2023/10/15 04:48:16;;;;;;;1.02;0.60;;;7.80;90.60;;;;;;5052090;28;20066;-34
2023/10/15 04:50:45;;;;;;;1.00;0.50;;;7.80;90.60;;;;;;5053621;28;20092;-34
2023/10/15 04:53:12;;;;;;;1.38;0.40;;;7.90;90.60;;;;;;5053537;28;20039;-34
2023/10/15 04:55:42;;;;;;;1.10;0.50;;;7.90;90.70;;;;;;5053752;28;20045;-33
2023/10/15 04:58:11;;;;;;;1.08;0.55;;;7.90;90.60;;;;;;5052298;28;20045;-33
2023/10/15 05:00:45;;;;;;;0.85;0.40;;;7.80;90.60;;;;;;5053643;28;20071;-34
2023/10/15 05:03:12;;;;;;;0.70;0.30;;;7.80;90.60;;;;;;5053322;28;20032;-32
2023/10/15 05:05:37;;;;;;;0.70;0.30;;;7.80;90.60;;;;;;5053715;28;20488;-34
2023/10/15 05:08:03;;;;;;;1.75;0.60;;;7.70;90.60;;;;;;5053362;28;20029;-34
2023/10/15 05:10:31;;;;;;;1.30;0.35;;;7.70;90.60;;;;;;5053305;28;20684;-35
2023/10/15 05:12:56;;;;;;;1.23;0.30;;;7.60;90.60;;;;;;5053624;28;20021;-34
2023/10/15 05:15:23;;;;;;;0.40;0.30;;;7.60;90.70;;;;;;5053023;28;20025;-35
2023/10/15 05:17:48;;;;;;;1.50;0.30;;;7.50;90.70;;;;;;5053524;28;20167;-32
2023/10/15 05:20:15;;;;;;;1.48;0.40;;;7.50;90.70;;;;;;5053429;28;20136;-35
2023/10/15 05:22:40;;;;;;;0.68;0.32;;;7.50;90.70;;;;;;5053074;28;20182;-32
2023/10/15 05:25:15;;;;;;;1.23;0.40;;;7.50;91.00;;;;;;5052932;28;20120;-34
2023/10/15 05:27:42;;;;;;;0.95;0.70;;;7.40;90.80;;;;;;5053185;28;20503;-35
2023/10/15 05:30:10;;;;;;;0.75;0.68;;;7.40;90.80;;;;;;5052678;28;20041;-34
2023/10/15 05:32:36;;;;;;;2.75;0.60;;;7.40;91.10;;;;;;5053337;28;20428;-35
2023/10/15 05:35:03;;;;;;;2.40;0.65;;;7.40;90.80;;;;;;5052773;28;20025;-35
2023/10/15 05:37:28;;;;;;;1.27;0.50;;;7.40;90.80;;;;;;5052887;28;20029;-35
2023/10/15 05:39:54;;;;;;;1.35;0.47;;;7.40;90.90;;;;;;5053027;28;20091;-35
2023/10/15 05:42:20;;;;;;;0.77;0.30;;;7.30;90.90;;;;;;5053031;28;20021;-35
2023/10/15 05:44:46;;;;;;;1.17;0.50;;;7.30;90.90;;;;;;5053061;28;20385;-36
2023/10/15 05:47:11;;;;;;;0.68;0.40;;;7.40;90.90;;;;;;5052573;28;20021;-34
2023/10/15 05:49:37;;;;;;;1.20;0.40;;;7.40;91.00;;;;;;5052637;28;20481;-35
2023/10/15 05:52:03;;;;;;;1.02;0.57;;;7.40;91.00;;;;;;5052777;28;20021;-35
2023/10/15 05:54:32;;;;;;;0.68;0.45;;;7.40;91.00;;;;;;5052723;28;20032;-34
2023/10/15 05:56:57;;;;;;;0.90;0.47;;;7.40;91.00;;;;;;5052243;28;20024;-34
2023/10/15 05:59:23;;;;;;;1.30;0.50;;;7.40;91.00;;;;;;5052709;28;20164;-35
2023/10/15 06:01:50;;;;;;;1.45;0.50;;;7.40;91.00;;;;;;5052476;28;20025;-34
2023/10/15 06:04:17;;;;;;;0.75;0.50;;;7.40;91.10;;;;;;5052811;28;20515;-35
2023/10/15 06:06:43;;;;;;;1.23;0.73;;;7.40;91.00;;;;;;5052523;28;20017;-35
2023/10/15 06:09:11;;;;;;;1.63;0.70;;;7.40;91.10;;;;;;5052468;28;20021;-34
2023/10/15 06:11:37;;;;;;;1.58;0.70;;;7.40;91.10;;;;;;5052594;28;20017;-35
2023/10/15 06:14:04;;;;;;;1.67;0.60;;;7.30;91.10;;;;;;5052649;28;20061;-35
2023/10/15 06:16:30;;;;;;;1.10;0.68;;;7.30;91.10;;;;;;5052178;28;20035;-34
2023/10/15 06:18:55;;;;;;;1.88;0.55;;;7.30;91.20;;;;;;5052562;28;20020;-35
2023/10/15 06:21:21;;;;;;;1.88;0.70;;;7.30;91.10;;;;;;5051025;28;20024;-34
2023/10/15 06:23:47;;;;;;;2.70;0.77;;;7.30;91.10;;;;;;5052225;28;20048;-33
2023/10/15 06:26:13;;;;;;;0.93;0.70;;;7.30;91.10;;;;;;5052057;28;20021;-35
2023/10/15 06:28:38;;;;;;;2.08;1.17;;;7.30;91.10;;;;;;5052073;28;20670;-35
2023/10/15 06:31:04;;;;;;;4.40;2.00;;;7.30;91.10;;;;;;5052089;28;20025;-35
2023/10/15 06:33:30;;;;;;;4.13;1.70;;;7.30;91.10;;;;;;5052497;28;20025;-35
2023/10/15 06:35:57;;;;;;;2.88;1.30;;;7.30;91.10;;;;;;5052291;28;20056;-35
2023/10/15 06:38:22;;;;;;;1.83;1.20;;;7.30;91.10;;;;;;5050743;28;20544;-35
2023/10/15 06:40:48;;;;;;;1.58;0.80;;;7.30;91.10;;;;;;5052257;28;20101;-34
2023/10/15 06:43:15;;;;;;;0.80;0.80;;;7.30;91.10;;;;;;5052174;28;20025;-35
2023/10/15 06:45:40;;;;;;;1.48;0.82;;;7.40;91.20;;;;;;5052282;28;20722;-36
2023/10/15 06:48:06;;;;;;;2.03;0.73;;;7.40;91.10;;;;;;5051993;28;20048;-34
2023/10/15 06:50:33;;;;;;;1.42;0.88;;;7.50;91.10;;;;;;5052294;28;20021;-34
2023/10/15 06:53:05;;;;;;;3.00;1.20;;;7.50;91.10;;;;;;5051807;28;20032;-34
2023/10/15 06:55:31;;;;;;;1.13;0.95;;;7.60;91.10;;;;;;5052256;28;20036;-34
2023/10/15 06:57:57;;;;;;;2.33;1.10;;;7.60;91.00;;;;;;5052351;28;20029;-35
2023/10/15 07:00:23;;;;;;;3.83;1.00;;;7.70;90.90;;;;;;5052050;28;20021;-35
2023/10/15 07:02:52;;;;;;;3.83;1.10;;;7.80;91.00;;;;;;5052099;28;20020;-35
2023/10/15 07:05:20;;;;;;;1.00;0.80;;;7.80;90.90;;;;;;5051683;28;20029;-34
2023/10/15 07:07:46;;;;;;;1.20;0.70;;;7.80;90.80;;;;;;5052282;28;20019;-35
2023/10/15 07:10:16;;;;;;;2.42;0.80;;;7.80;90.80;;;;;;5054742;28;20357;-35
2023/10/15 07:12:45;;;;;;;2.90;0.85;;;7.80;90.80;;;;;;5055716;28;20039;-32
2023/10/15 07:15:13;;;;;;;2.28;0.77;;;7.80;90.80;;;;;;5055884;28;20029;-34
2023/10/15 07:17:39;;;;;;;2.67;1.00;;;7.90;90.90;;;;;;5055717;28;20079;-34
2023/10/15 07:20:14;;;;;;;1.95;0.88;;;7.90;90.80;;;;;;5055294;28;20036;-35
2023/10/15 07:22:41;;;;;;;3.42;1.13;;;8.00;90.80;;;;;;5055794;28;20029;-34
2023/10/15 07:25:08;;;;;;;4.47;1.20;;;8.10;90.80;;;;;;5055506;28;20020;-37
2023/10/15 07:27:35;;;;;;;2.03;0.90;;;8.20;90.80;;;;;;5054093;28;20033;-36
2023/10/15 07:30:01;;;;;;;2.78;0.90;;;8.30;90.70;;;;;;5055097;28;20048;-35
2023/10/15 07:32:27;;;;;;;1.73;0.70;;;8.40;90.60;;;;;;5055302;28;20025;-35
2023/10/15 07:34:53;;;;;;;2.05;0.90;;;8.40;90.60;;;;;;5055232;28;20150;-32
2023/10/15 07:37:19;;;;;;;1.95;0.80;;;8.40;90.50;;;;;;5055254;28;20131;-35
2023/10/15 07:39:45;;;;;;;1.65;0.80;;;8.40;90.50;;;;;;5055102;28;20124;-35
2023/10/15 07:42:11;;;;;;;1.83;0.63;;;8.40;90.50;;;;;;5055083;28;20021;-35
2023/10/15 07:44:36;;;;;;;3.08;0.80;;;8.40;90.60;;;;;;5054959;28;20017;-35
2023/10/15 07:47:04;;;;;;;2.60;0.73;;;8.40;90.60;;;;;;5055006;28;20370;-35
2023/10/15 07:49:31;;;;;;;2.22;0.77;;;8.40;90.50;;;;;;5055101;28;20075;-36
2023/10/15 07:51:57;;;;;;;2.40;1.10;;;8.40;90.50;;;;;;5055229;28;20427;-35
2023/10/15 07:54:23;;;;;;;3.03;1.00;;;8.40;90.50;;;;;;5054673;28;20053;-34
2023/10/15 07:56:48;;;;;;;1.40;0.90;;;8.40;90.60;;;;;;5055028;28;20097;-34
2023/10/15 07:59:14;;;;;;;2.03;0.60;;;8.50;90.70;;;;;;5054793;28;20022;-34
2023/10/15 08:01:40;;;;;;;1.92;1.00;;;8.50;90.70;;;;;;5054650;28;20063;-32
2023/10/15 08:04:06;;;;;;;3.65;0.95;;;8.50;90.60;;;;;;5054745;28;20469;-35
2023/10/15 08:06:33;;;;;;;6.18;1.08;;;8.60;90.60;;;;;;5054741;28;20021;-35
2023/10/15 08:08:59;;;;;;;1.50;0.55;;;8.60;90.50;;;;;;5054658;28;20519;-35
2023/10/15 08:11:25;;;;;;;2.90;0.85;;;8.50;90.50;;;;;;5054561;28;20020;-35
2023/10/15 08:13:50;;;;;;;3.65;0.98;;;8.60;90.60;;;;;;5054471;28;20031;-35
2023/10/15 08:16:18;;;;;;;1.58;0.70;;;8.70;90.50;;;;;;5054616;28;20032;-40
2023/10/15 08:18:44;;;;;;;0.80;0.70;;;8.70;90.50;;;;;;5054308;28;20039;-35
2023/10/15 08:21:11;;;;;;;2.10;0.90;;;8.70;90.40;;;;;;5054484;28;20025;-34
2023/10/15 08:23:38;;;;;;;3.20;1.17;;;8.80;90.40;;;;;;5054289;28;20035;-35
2023/10/15 08:26:05;;;;;;;1.88;0.77;;;8.80;90.40;;;;;;5054275;28;20467;-34
2023/10/15 08:28:31;;;;;;;1.73;0.80;;;8.80;90.40;;;;;;5054402;28;20497;-34
2023/10/15 08:30:57;;;;;;;0.95;0.85;;;8.80;90.40;;;;;;5054406;28;20028;-35
2023/10/15 08:33:24;;;;;;;1.58;0.65;;;8.80;90.40;;;;;;5054179;28;20035;-34
2023/10/15 08:35:49;;;;;;;1.65;0.63;;;8.80;90.40;;;;;;5053996;28;20025;-34
2023/10/15 08:38:15;;;;;;;3.22;1.13;;;8.80;90.40;;;;;;5054069;28;20058;-35
2023/10/15 08:40:45;;;;;;;1.48;0.77;;;8.80;90.40;;;;;;5052674;28;20496;-35
2023/10/15 08:43:24;;;;;;;1.45;0.70;;;8.80;90.40;;;;;;5054118;28;20021;-35
2023/10/15 08:45:51;;;;;;;1.77;0.60;;;8.80;90.50;;;;;;5053945;28;20029;-35
2023/10/15 08:48:19;;;;;;;1.27;0.80;;;8.80;90.50;;;;;;5053987;28;20465;-35
2023/10/15 08:50:46;;;;;;;2.42;1.00;;;8.80;90.40;;;;;;5053910;28;20025;-36
2023/10/15 08:53:13;;;;;;;3.63;0.90;;;8.90;90.40;;;;;;5052412;28;20373;-36
2023/10/15 08:55:41;;;;;;;1.63;0.68;;;8.90;90.30;;;;;;5053790;28;20546;-33
2023/10/15 08:58:09;;;;;;;4.38;1.00;;;9.00;90.20;;;;;;5053652;28;20024;-35
2023/10/15 09:00:36;;;;;;;1.75;0.50;;;9.00;90.20;;;;;;5053937;28;20029;-35
2023/10/15 09:03:03;;;;;;;1.60;0.70;;;8.90;90.10;;;;;;5053679;28;20036;-35
2023/10/15 09:05:40;;;;;;;1.33;0.50;;;8.80;90.10;;;;;;5053790;28;20082;-35
2023/10/15 09:08:07;;;;;;;0.95;0.60;;;8.80;90.20;;;;;;5053930;28;20025;-36
2023/10/15 09:10:36;;;;;;;2.65;0.68;;;8.80;90.30;;;;;;5052162;28;20017;-35
2023/10/15 09:13:03;;;;;;;2.47;0.70;;;8.80;90.30;;;;;;5053728;28;20079;-34
2023/10/15 09:15:30;;;;;;;2.45;0.82;;;8.80;90.30;;;;;;5053353;28;20037;-35
2023/10/15 09:17:57;;;;;;;1.30;0.57;;;8.90;90.40;;;;;;5053450;28;20071;-35
2023/10/15 09:20:27;;;;;;;0.73;0.55;;;9.00;90.30;;;;;;5053266;28;20484;-34
2023/10/15 09:23:00;;;;;;;1.50;0.60;;;9.00;90.30;;;;;;5053201;28;20519;-36
2023/10/15 09:25:31;;;;;;;1.42;0.70;;;9.10;90.30;;;;;;5053010;28;20021;-35
2023/10/15 09:27:58;;;;;;;3.95;0.52;;;9.30;90.20;;;;;;5053178;28;20067;-36
2023/10/15 09:30:25;;;;;;;1.58;0.60;;;9.40;90.00;;;;;;5052953;28;20037;-34
2023/10/15 09:32:51;;;;;;;0.75;0.45;;;9.60;89.90;;;;;;5052757;28;20025;-35
2023/10/15 09:35:17;;;;;;;1.30;0.50;;;9.60;89.50;;;;;;5053052;28;20163;-35
2023/10/15 09:37:44;;;;;;;2.30;0.50;;;9.60;89.40;;;;;;5052812;28;20033;-34
2023/10/15 09:40:18;;;;;;;1.35;0.60;;;9.60;89.40;;;;;;5053166;28;20029;-34
2023/10/15 09:42:48;;;;;;;1.85;0.77;;;9.60;89.30;;;;;;5053149;28;20497;-35
2023/10/15 09:45:18;;;;;;;1.90;0.90;;;9.60;89.20;;;;;;5052940;28;20484;-36
2023/10/15 09:47:48;;;;;;;1.73;1.00;;;9.60;89.10;;;;;;5052370;28;20025;-35
2023/10/15 09:50:25;;;;;;;3.47;1.10;;;9.70;89.10;;;;;;5051451;28;20083;-34
2023/10/15 09:52:57;;;;;;;3.20;1.20;;;9.80;89.10;;;;;;5052562;28;20529;-35
2023/10/15 09:55:27;;;;;;;0.90;0.53;;;10.00;89.10;;;;;;5052397;28;20489;-34
2023/10/15 09:57:55;;;;;;;2.15;0.60;;;10.10;88.90;;;;;;5051263;28;20276;-35
2023/10/15 10:03:37;;;;;;;3.17;0.50;;;10.10;88.60;;;;;;5052477;28;20036;-34
2023/10/15 10:06:33;;;;;;;1.08;0.40;;;10.10;88.40;;;;;;5052218;28;20357;-34
2023/10/15 10:09:16;;;;;;;3.95;0.90;;;10.10;88.40;;;;;;5052602;28;20056;-35
2023/10/15 10:12:11;;;;;;;0.87;0.57;;;10.10;88.20;;;;;;5052425;28;20029;-35
2023/10/15 10:14:59;;;;;;;1.60;0.80;;;10.10;88.10;;;;;;5052498;28;20029;-35
2023/10/15 10:17:25;;;;;;;2.30;0.65;;;10.10;88.20;;;;;;5052360;28;20480;-35
2023/10/15 10:19:53;;;;;;;2.28;0.60;;;10.20;88.10;;;;;;5052431;28;20059;-34
2023/10/15 10:22:26;;;;;;;3.78;0.63;;;10.20;87.90;;;;;;5052455;28;20060;-36
2023/10/15 10:24:58;;;;;;;4.97;0.88;;;10.20;88.00;;;;;;5052298;28;20053;-34
2023/10/15 10:27:25;;;;;;;2.75;0.80;;;10.20;88.00;;;;;;5052296;28;20029;-35
2023/10/15 10:30:14;;;;;;;2.85;0.73;;;10.20;87.80;;;;;;5051664;28;20045;-34
2023/10/15 10:32:41;;;;;;;4.07;0.60;;;10.10;86.90;;;;;;5051514;28;20044;-35
2023/10/15 10:35:45;;;;;;;1.52;0.70;;;10.10;87.20;;;;;;5051532;28;20489;-34
2023/10/15 10:38:20;;;;;;;2.67;0.85;;;10.10;87.30;;;;;;5045017;28;20550;-33
2023/10/15 10:40:53;;;;;;;1.88;0.55;;;10.10;87.10;;;;;;5051567;28;20025;-35
2023/10/15 10:43:24;;;;;;;2.85;0.63;;;10.10;87.00;;;;;;5053086;28;20039;-34
2023/10/15 10:45:54;;;;;;;2.50;0.70;;;10.00;87.00;;;;;;5055518;28;20021;-34
2023/10/15 10:48:27;;;;;;;1.02;0.52;;;9.90;86.80;;;;;;5054306;28;20481;-35
2023/10/15 10:51:08;;;;;;;2.10;0.73;;;9.90;86.70;;;;;;5055296;28;20025;-35
2023/10/15 10:53:59;;;;;;;2.80;0.70;;;10.00;86.70;;;;;;5055453;28;20033;-33
2023/10/15 10:56:40;;;;;;;1.73;0.90;;;10.00;86.60;;;;;;5055105;28;20031;-35
2023/10/15 10:59:12;;;;;;;2.83;0.63;;;10.00;86.30;;;;;;5055455;28;20520;-35
2023/10/15 11:01:42;;;;;;;2.42;0.70;;;10.00;86.30;;;;;;5055349;28;20024;-36
2023/10/15 11:04:10;;;;;;;2.88;0.80;;;10.10;86.20;;;;;;5055144;28;20025;-34
2023/10/15 11:06:37;;;;;;;2.38;0.80;;;10.20;86.00;;;;;;5054858;28;20075;-35
2023/10/15 11:09:15;;;;;;;2.13;0.90;;;10.30;85.50;;;;;;5055034;28;20389;-34
2023/10/15 11:11:45;;;;;;;2.10;0.80;;;10.40;85.40;;;;;;5055271;28;20083;-35
2023/10/15 11:14:12;;;;;;;3.67;0.80;;;10.40;85.10;;;;;;5055307;28;20056;-36
2023/10/15 11:16:40;;;;;;;2.00;0.70;;;10.50;84.80;;;;;;5053447;28;20041;-36
2023/10/15 11:19:24;;;;;;;2.25;0.40;;;10.50;84.70;;;;;;5054807;28;20025;-36
2023/10/15 11:21:52;;;;;;;1.30;0.68;;;10.60;84.90;;;;;;5054908;28;20120;-35
2023/10/15 11:24:19;;;;;;;2.85;0.60;;;10.70;84.80;;;;;;5054728;28;20029;-35
2023/10/15 11:26:46;;;;;;;1.77;0.50;;;10.80;84.60;;;;;;5054944;28;20024;-35
2023/10/15 11:29:13;;;;;;;3.63;0.70;;;10.80;84.60;;;;;;5054552;28;20044;-35
2023/10/15 11:31:44;;;;;;;1.60;0.70;;;10.80;84.50;;;;;;5054621;28;20032;-36
2023/10/15 11:34:17;;;;;;;2.70;0.88;;;10.80;84.50;;;;;;5054581;28;20027;-35
2023/10/15 11:36:43;;;;;;;1.98;0.70;;;10.90;84.50;;;;;;5053159;28;20069;-35
2023/10/15 11:39:17;;;;;;;0.90;0.70;;;11.00;84.40;;;;;;5054517;28;20352;-35
2023/10/15 11:41:50;;;;;;;2.42;0.70;;;11.10;83.60;;;;;;5054350;28;20021;-32
2023/10/15 11:44:17;;;;;;;3.38;1.02;;;11.00;82.80;;;;;;5053337;28;20163;-35
2023/10/15 11:46:46;;;;;;;2.05;0.65;;;10.90;82.00;;;;;;5054258;28;20413;-34
2023/10/15 11:49:11;;;;;;;2.08;0.60;;;10.80;81.90;;;;;;5054522;28;20054;-35
2023/10/15 11:51:39;;;;;;;3.63;0.77;;;10.70;82.10;;;;;;5054196;28;20029;-34
2023/10/15 11:54:09;;;;;;;2.83;0.75;;;10.70;82.70;;;;;;5053845;28;20040;-35
2023/10/15 11:56:38;;;;;;;2.90;0.60;;;10.80;82.30;;;;;;5054072;28;20029;-37
2023/10/15 11:59:03;;;;;;;1.50;0.70;;;11.00;81.90;;;;;;5054371;28;20033;-35
2023/10/15 12:01:29;;;;;;;2.33;0.90;;;11.10;81.80;;;;;;5054243;28;20040;-33
2023/10/15 12:04:00;;;;;;;1.88;0.65;;;11.20;81.00;;;;;;5054402;28;20017;-35
2023/10/15 12:06:26;;;;;;;3.63;0.93;;;11.20;81.00;;;;;;5052878;28;20376;-35
2023/10/15 12:08:52;;;;;;;3.17;1.10;;;11.20;80.90;;;;;;5054374;28;20025;-33
2023/10/15 12:11:18;;;;;;;2.00;0.77;;;11.20;80.20;;;;;;5054310;28;20028;-37
2023/10/15 12:13:44;;;;;;;4.43;0.90;;;11.20;80.40;;;;;;5053838;28;20033;-35
2023/10/15 12:16:13;;;;;;;2.58;0.70;;;11.20;80.60;;;;;;5053976;28;20047;-35
2023/10/15 12:18:38;;;;;;;1.77;0.65;;;11.20;80.30;;;;;;5053869;28;20033;-35
2023/10/15 12:21:06;;;;;;;1.90;0.90;;;11.20;80.00;;;;;;5053775;28;20075;-34
2023/10/15 12:23:31;;;;;;;7.80;1.30;;;11.30;79.40;;;;;;5053539;28;20029;-35
2023/10/15 12:25:57;;;;;;;2.33;1.02;;;11.30;79.20;;;;;;5053436;28;20032;-37
2023/10/15 12:28:22;;;;;;;3.55;1.40;;;11.40;79.10;;;;;;5053600;28;20049;-33
2023/10/15 12:30:48;;;;;;;2.78;0.85;;;11.50;79.30;;;;;;5053554;28;20029;-36
2023/10/15 12:33:15;;;;;;;3.95;1.20;;;11.60;78.40;;;;;;5053686;28;20021;-36
2023/10/15 12:35:41;;;;;;;2.38;0.95;;;11.60;78.50;;;;;;5053656;28;20029;-35
2023/10/15 12:38:12;;;;;;;1.75;0.60;;;11.70;78.50;;;;;;5053719;28;20051;-34
2023/10/15 12:40:38;;;;;;;6.13;1.10;;;11.70;78.00;;;;;;5053722;28;20029;-35
2023/10/15 12:43:08;;;;;;;4.47;0.98;;;11.90;77.40;;;;;;5053122;28;20499;-34
2023/10/15 12:45:34;;;;;;;2.78;0.85;;;12.00;77.30;;;;;;5052759;28;20032;-33
2023/10/15 12:48:01;;;;;;;1.77;0.75;;;12.10;77.20;;;;;;5053016;28;20033;-35
2023/10/15 12:50:27;;;;;;;2.90;0.80;;;12.20;76.70;;;;;;5053513;28;20021;-36
2023/10/15 12:52:56;;;;;;;2.80;0.98;;;12.30;76.50;;;;;;5052774;28;20043;-35
2023/10/15 12:55:22;;;;;;;2.03;0.90;;;12.40;75.60;;;;;;5052730;28;20021;-36
2023/10/15 12:57:50;;;;;;;3.08;0.73;;;12.50;74.70;;;;;;5053073;28;20499;-37
2023/10/15 13:00:21;;;;;;;3.65;1.00;;;12.30;74.40;;;;;;5053038;28;20032;-35
2023/10/15 13:02:53;;;;;;;2.33;0.77;;;12.30;74.70;;;;;;5053001;28;20104;-36
2023/10/15 13:05:20;;;;;;;2.05;0.65;;;12.20;74.50;;;;;;5053009;28;20074;-36
2023/10/15 13:07:46;;;;;;;3.20;0.90;;;12.10;75.20;;;;;;5052064;28;20477;-35
2023/10/15 13:10:13;;;;;;;1.95;0.75;;;12.00;75.20;;;;;;5052995;28;20348;-36
2023/10/15 13:12:39;;;;;;;2.28;0.70;;;12.00;75.30;;;;;;5052883;28;20021;-35
2023/10/15 13:15:10;;;;;;;3.30;0.77;;;12.00;75.50;;;;;;5052698;28;20476;-35
2023/10/15 13:17:37;;;;;;;4.03;1.00;;;11.90;74.40;;;;;;5052644;28;20136;-36
2023/10/15 13:20:06;;;;;;;2.92;0.80;;;11.90;73.60;;;;;;5052474;28;20401;-35
2023/10/15 13:22:34;;;;;;;1.50;0.60;;;11.80;74.00;;;;;;5052472;28;20107;-35
2023/10/15 13:25:00;;;;;;;0.95;0.70;;;11.80;73.40;;;;;;5052573;28;20024;-36
2023/10/15 13:27:26;;;;;;;0.93;0.35;;;11.60;72.60;;;;;;5052551;28;20036;-36
2023/10/15 13:29:51;;;;;;;1.20;0.52;;;11.40;73.30;;;;;;5052219;28;20615;-36
2023/10/15 13:32:17;;;;;;;2.03;0.50;;;11.30;73.50;;;;;;5052257;28;20021;-36